createdAt,value
2022-09-26T00:00:34.228Z,1005.85
2022-09-26T00:01:34.273Z,1005.78
2022-09-26T00:02:34.252Z,1005.75
2022-09-26T00:03:34.192Z,1005.79
2022-09-26T00:04:34.178Z,1005.73
2022-09-26T00:05:34.167Z,1005.69
2022-09-26T00:06:34.171Z,1005.71
2022-09-26T00:07:34.138Z,1005.64
2022-09-26T00:08:34.167Z,1005.66
2022-09-26T00:09:34.132Z,1005.59
2022-09-26T00:10:34.117Z,1005.61
2022-09-26T00:11:34.129Z,1005.60
2022-09-26T00:12:34.086Z,1005.56
2022-09-26T00:13:34.080Z,1005.59
2022-09-26T00:14:34.097Z,1005.53
2022-09-26T00:15:34.056Z,1005.54
2022-09-26T00:16:34.094Z,1005.58
2022-09-26T00:17:34.031Z,1005.55
2022-09-26T00:18:34.044Z,1005.57
2022-09-26T00:19:34.040Z,1005.50
2022-09-26T00:20:33.999Z,1005.47
2022-09-26T00:21:34.112Z,1005.47
2022-09-26T00:22:33.994Z,1005.53
2022-09-26T00:23:33.974Z,1005.49
2022-09-26T00:24:34.000Z,1005.44
2022-09-26T00:25:33.948Z,1005.47
2022-09-26T00:26:33.970Z,1005.48
2022-09-26T00:27:33.936Z,1005.50
2022-09-26T00:28:33.932Z,1005.43
2022-09-26T00:29:33.917Z,1005.46
2022-09-26T00:30:34.063Z,1005.40
2022-09-26T00:31:33.885Z,1005.38
2022-09-26T00:32:33.881Z,1005.40
2022-09-26T00:33:33.885Z,1005.36
2022-09-26T00:34:33.854Z,1005.39
2022-09-26T00:35:33.842Z,1005.34
2022-09-26T00:36:38.288Z,1005.38
2022-09-26T00:37:34.817Z,1005.36
2022-09-26T00:38:33.818Z,1005.36
2022-09-26T00:39:33.818Z,1005.37
2022-09-26T00:40:33.846Z,1005.38
2022-09-26T00:41:33.826Z,1005.34
2022-09-26T00:42:33.786Z,1005.31
2022-09-26T00:43:33.756Z,1005.32
2022-09-26T00:44:33.749Z,1005.29
2022-09-26T00:45:33.791Z,1005.28
2022-09-26T00:46:33.814Z,1005.25
2022-09-26T00:47:33.768Z,1005.26
2022-09-26T00:48:33.710Z,1005.23
2022-09-26T00:49:33.689Z,1005.26
2022-09-26T00:50:33.687Z,1005.20
2022-09-26T00:51:33.660Z,1005.24
2022-09-26T00:52:33.699Z,1005.27
2022-09-26T00:53:33.650Z,1005.23
2022-09-26T00:54:33.637Z,1005.20
2022-09-26T00:55:33.632Z,1005.21
2022-09-26T00:56:33.617Z,1005.21
2022-09-26T00:57:33.631Z,1005.13
2022-09-26T00:58:33.603Z,1005.17
2022-09-26T00:59:33.601Z,1005.17
2022-09-26T01:00:34.312Z,1005.16
2022-09-26T01:01:33.685Z,1005.11
2022-09-26T01:02:33.651Z,1005.09
2022-09-26T01:03:33.552Z,1005.07
2022-09-26T01:04:33.545Z,1005.11
2022-09-26T01:05:33.521Z,1005.05
2022-09-26T01:06:33.503Z,1005.04
2022-09-26T01:07:33.521Z,1005.03
2022-09-26T01:08:33.496Z,1005.03
2022-09-26T01:09:33.476Z,1005.02
2022-09-26T01:10:33.462Z,1005.00
2022-09-26T01:11:33.452Z,1004.99
2022-09-26T01:12:33.475Z,1005.01
2022-09-26T01:13:33.446Z,1004.98
2022-09-26T01:14:33.427Z,1004.98
2022-09-26T01:15:33.416Z,1004.95
2022-09-26T01:16:33.423Z,1005.00
2022-09-26T01:17:33.396Z,1004.93
2022-09-26T01:18:33.405Z,1004.91
2022-09-26T01:19:33.384Z,1004.91
2022-09-26T01:20:33.356Z,1004.89
2022-09-26T01:21:33.345Z,1004.84
2022-09-26T01:22:33.339Z,1004.89
2022-09-26T01:23:33.348Z,1004.89
2022-09-26T01:24:33.326Z,1004.88
2022-09-26T01:25:33.308Z,1004.87
2022-09-26T01:26:33.288Z,1004.89
2022-09-26T01:27:33.279Z,1004.86
2022-09-26T01:28:33.299Z,1004.91
2022-09-26T01:29:33.260Z,1004.89
2022-09-26T01:30:33.273Z,1004.95
2022-09-26T01:31:33.241Z,1004.95
2022-09-26T01:32:33.220Z,1004.93
2022-09-26T01:33:33.249Z,1004.93
2022-09-26T01:34:33.219Z,1004.93
2022-09-26T01:35:33.201Z,1004.89
2022-09-26T01:36:33.180Z,1004.93
2022-09-26T01:37:33.180Z,1004.87
2022-09-26T01:38:33.189Z,1004.88
2022-09-26T01:39:33.174Z,1004.86
2022-09-26T01:40:33.171Z,1004.88
2022-09-26T01:41:33.131Z,1004.82
2022-09-26T01:42:33.115Z,1004.87
2022-09-26T01:43:33.110Z,1004.77
2022-09-26T01:44:33.126Z,1004.77
2022-09-26T01:45:33.105Z,1004.75
2022-09-26T01:46:33.084Z,1004.77
2022-09-26T01:47:33.073Z,1004.78
2022-09-26T01:48:33.053Z,1004.76
2022-09-26T01:49:33.072Z,1004.77
2022-09-26T01:50:33.037Z,1004.75
2022-09-26T01:51:33.031Z,1004.70
2022-09-26T01:52:33.002Z,1004.70
2022-09-26T01:53:32.994Z,1004.78
2022-09-26T01:54:33.014Z,1004.74
2022-09-26T01:55:32.983Z,1004.70
2022-09-26T01:56:32.974Z,1004.71
2022-09-26T01:57:32.965Z,1004.69
2022-09-26T01:58:32.943Z,1004.67
2022-09-26T01:59:32.986Z,1004.74
2022-09-26T02:00:33.045Z,1004.62
2022-09-26T02:01:33.002Z,1004.62
2022-09-26T02:02:32.995Z,1004.68
2022-09-26T02:03:32.886Z,1004.69
2022-09-26T02:04:32.885Z,1004.61
2022-09-26T02:05:32.897Z,1004.61
2022-09-26T02:06:32.868Z,1004.62
2022-09-26T02:07:32.858Z,1004.69
2022-09-26T02:08:32.836Z,1004.60
2022-09-26T02:09:32.827Z,1004.67
2022-09-26T02:10:32.858Z,1004.66
2022-09-26T02:11:32.810Z,1004.61
2022-09-26T02:12:32.817Z,1004.61
2022-09-26T02:13:32.801Z,1004.64
2022-09-26T02:14:32.769Z,1004.58
2022-09-26T02:15:32.760Z,1004.60
2022-09-26T02:16:32.811Z,1004.57
2022-09-26T02:17:32.741Z,1004.59
2022-09-26T02:18:32.730Z,1004.55
2022-09-26T02:19:32.719Z,1004.59
2022-09-26T02:20:32.708Z,1004.54
2022-09-26T02:21:32.730Z,1004.60
2022-09-26T02:22:32.693Z,1004.58
2022-09-26T02:23:32.690Z,1004.54
2022-09-26T02:24:32.658Z,1004.52
2022-09-26T02:25:32.656Z,1004.54
2022-09-26T02:26:32.659Z,1004.50
2022-09-26T02:27:32.621Z,1004.54
2022-09-26T02:28:32.623Z,1004.54
2022-09-26T02:29:32.626Z,1004.54
2022-09-26T02:30:32.593Z,1004.49
2022-09-26T02:31:32.658Z,1004.53
2022-09-26T02:32:32.577Z,1004.53
2022-09-26T02:33:32.665Z,1004.44
2022-09-26T02:34:32.584Z,1004.43
2022-09-26T02:35:32.555Z,1004.46
2022-09-26T02:36:32.574Z,1004.47
2022-09-26T02:37:32.542Z,1004.49
2022-09-26T02:38:32.512Z,1004.43
2022-09-26T02:39:32.504Z,1004.46
2022-09-26T02:40:32.549Z,1004.46
2022-09-26T02:41:32.486Z,1004.50
2022-09-26T02:42:32.509Z,1004.40
2022-09-26T02:43:32.467Z,1004.44
2022-09-26T02:44:32.434Z,1004.38
2022-09-26T02:45:32.455Z,1004.36
2022-09-26T02:46:32.427Z,1004.37
2022-09-26T02:47:32.536Z,1004.36
2022-09-26T02:48:32.396Z,1004.37
2022-09-26T02:49:32.408Z,1004.39
2022-09-26T02:50:33.644Z,1004.33
2022-09-26T02:51:32.376Z,1004.36
2022-09-26T02:52:32.366Z,1004.45
2022-09-26T02:53:32.401Z,1004.37
2022-09-26T02:54:32.348Z,1004.37
2022-09-26T02:55:32.337Z,1004.38
2022-09-26T02:56:32.340Z,1004.35
2022-09-26T02:57:32.323Z,1004.34
2022-09-26T02:58:32.330Z,1004.37
2022-09-26T02:59:32.290Z,1004.35
2022-09-26T03:00:32.272Z,1004.37
2022-09-26T03:01:32.338Z,1004.40
2022-09-26T03:02:32.279Z,1004.40
2022-09-26T03:03:32.295Z,1004.36
2022-09-26T03:04:32.308Z,1004.37
2022-09-26T03:05:32.232Z,1004.37
2022-09-26T03:06:32.209Z,1004.37
2022-09-26T03:07:32.310Z,1004.43
2022-09-26T03:08:32.180Z,1004.40
2022-09-26T03:09:32.182Z,1004.34
2022-09-26T03:10:32.223Z,1004.35
2022-09-26T03:11:32.151Z,1004.35
2022-09-26T03:12:32.155Z,1004.39
2022-09-26T03:13:32.174Z,1004.38
2022-09-26T03:14:32.164Z,1004.33
2022-09-26T03:15:32.113Z,1004.30
2022-09-26T03:16:32.154Z,1004.32
2022-09-26T03:17:32.097Z,1004.31
2022-09-26T03:18:32.127Z,1004.31
2022-09-26T03:19:32.063Z,1004.35
2022-09-26T03:20:32.064Z,1004.23
2022-09-26T03:21:36.119Z,1004.27
2022-09-26T03:22:33.043Z,1004.21
2022-09-26T03:23:32.036Z,1004.27
2022-09-26T03:24:32.058Z,1004.23
2022-09-26T03:25:32.015Z,1004.28
2022-09-26T03:26:31.997Z,1004.19
2022-09-26T03:27:31.987Z,1004.24
2022-09-26T03:28:37.473Z,1004.13
2022-09-26T03:29:32.987Z,1004.15
2022-09-26T03:30:31.980Z,1004.08
2022-09-26T03:31:32.041Z,1004.02
2022-09-26T03:32:31.937Z,1004.06
2022-09-26T03:33:31.938Z,1004.05
2022-09-26T03:34:31.971Z,1004.01
2022-09-26T03:35:31.910Z,1004.05
2022-09-26T03:36:31.898Z,1003.99
2022-09-26T03:37:31.880Z,1004.04
2022-09-26T03:38:31.869Z,1004.04
2022-09-26T03:39:31.849Z,1004.00
2022-09-26T03:40:31.937Z,1004.02
2022-09-26T03:41:31.832Z,1003.94
2022-09-26T03:42:31.829Z,1003.95
2022-09-26T03:43:31.892Z,1003.97
2022-09-26T03:44:31.838Z,1003.90
2022-09-26T03:45:31.837Z,1003.87
2022-09-26T03:46:35.003Z,1003.90
2022-09-26T03:47:32.770Z,1003.88
2022-09-26T03:48:31.770Z,1003.91
2022-09-26T03:49:31.770Z,1003.79
2022-09-26T03:50:31.740Z,1003.82
2022-09-26T03:51:31.731Z,1003.72
2022-09-26T03:52:31.723Z,1003.77
2022-09-26T03:53:31.703Z,1003.85
2022-09-26T03:54:31.732Z,1003.81
2022-09-26T03:55:31.716Z,1003.82
2022-09-26T03:56:31.672Z,1003.81
2022-09-26T03:57:31.663Z,1003.80
2022-09-26T03:58:31.656Z,1003.70
2022-09-26T03:59:31.632Z,1003.75
2022-09-26T04:00:31.770Z,1003.76
2022-09-26T04:01:31.665Z,1003.74
2022-09-26T04:02:31.626Z,1003.73
2022-09-26T04:03:31.615Z,1003.70
2022-09-26T04:04:31.605Z,1003.68
2022-09-26T04:05:31.582Z,1003.68
2022-09-26T04:06:31.615Z,1003.61
2022-09-26T04:07:31.557Z,1003.65
2022-09-26T04:08:31.557Z,1003.66
2022-09-26T04:09:31.527Z,1003.59
2022-09-26T04:10:31.515Z,1003.65
2022-09-26T04:11:31.565Z,1003.64
2022-09-26T04:12:31.497Z,1003.64
2022-09-26T04:13:50.487Z,1003.68
2022-09-26T04:14:32.477Z,1003.63
2022-09-26T04:15:31.470Z,1003.66
2022-09-26T04:16:31.472Z,1003.66
2022-09-26T04:17:31.558Z,1003.64
2022-09-26T04:18:31.456Z,1003.62
2022-09-26T04:19:31.428Z,1003.63
2022-09-26T04:20:31.420Z,1003.57
2022-09-26T04:21:31.397Z,1003.59
2022-09-26T04:22:31.394Z,1003.51
2022-09-26T04:23:31.390Z,1003.52
2022-09-26T04:24:31.403Z,1003.60
2022-09-26T04:25:31.352Z,1003.46
2022-09-26T04:26:31.352Z,1003.51
2022-09-26T04:27:31.329Z,1003.47
2022-09-26T04:28:31.332Z,1003.40
2022-09-26T04:29:31.357Z,1003.43
2022-09-26T04:30:31.322Z,1003.42
2022-09-26T04:31:31.314Z,1003.33
2022-09-26T04:32:31.321Z,1003.37
2022-09-26T04:33:31.318Z,1003.35
2022-09-26T04:34:31.275Z,1003.36
2022-09-26T04:35:31.257Z,1003.30
2022-09-26T04:36:31.255Z,1003.33
2022-09-26T04:37:31.220Z,1003.37
2022-09-26T04:38:31.214Z,1003.33
2022-09-26T04:39:31.254Z,1003.31
2022-09-26T04:40:31.241Z,1003.35
2022-09-26T04:41:31.185Z,1003.32
2022-09-26T04:42:31.185Z,1003.31
2022-09-26T04:43:31.162Z,1003.27
2022-09-26T04:44:31.153Z,1003.33
2022-09-26T04:45:31.250Z,1003.32
2022-09-26T04:46:31.477Z,1003.32
2022-09-26T04:47:31.126Z,1003.30
2022-09-26T04:48:31.105Z,1003.41
2022-09-26T04:49:31.099Z,1003.41
2022-09-26T04:50:31.086Z,1003.36
2022-09-26T04:51:31.112Z,1003.30
2022-09-26T04:52:31.054Z,1003.31
2022-09-26T04:53:31.055Z,1003.34
2022-09-26T04:54:31.051Z,1003.29
2022-09-26T04:55:31.025Z,1003.34
2022-09-26T04:56:31.075Z,1003.27
2022-09-26T04:57:31.020Z,1003.32
2022-09-26T04:58:31.018Z,1003.27
2022-09-26T04:59:31.000Z,1003.29
2022-09-26T05:00:31.017Z,1003.31
2022-09-26T05:01:31.070Z,1003.18
2022-09-26T05:02:31.061Z,1003.17
2022-09-26T05:03:30.941Z,1003.20
2022-09-26T05:04:30.929Z,1003.22
2022-09-26T05:05:30.939Z,1003.23
2022-09-26T05:06:30.910Z,1003.28
2022-09-26T05:07:30.908Z,1003.22
2022-09-26T05:08:30.885Z,1003.22
2022-09-26T05:09:35.753Z,1003.22
2022-09-26T05:10:31.915Z,1003.17
2022-09-26T05:11:30.871Z,1003.19
2022-09-26T05:12:30.860Z,1003.26
2022-09-26T05:13:30.851Z,1003.19
2022-09-26T05:14:30.852Z,1003.17
2022-09-26T05:15:30.820Z,1003.10
2022-09-26T05:16:30.971Z,1003.19
2022-09-26T05:17:30.780Z,1003.18
2022-09-26T05:18:30.805Z,1003.21
2022-09-26T05:19:30.784Z,1003.15
2022-09-26T05:20:30.772Z,1003.19
2022-09-26T05:21:30.775Z,1003.20
2022-09-26T05:22:30.802Z,1003.17
2022-09-26T05:23:30.730Z,1003.16
2022-09-26T05:24:30.737Z,1003.13
2022-09-26T05:25:30.714Z,1003.13
2022-09-26T05:26:30.720Z,1003.15
2022-09-26T05:27:30.707Z,1003.22
2022-09-26T05:28:30.716Z,1003.20
2022-09-26T05:29:30.677Z,1003.19
2022-09-26T05:30:30.665Z,1003.20
2022-09-26T05:31:30.757Z,1003.19
2022-09-26T05:32:30.646Z,1003.12
2022-09-26T05:33:30.646Z,1003.13
2022-09-26T05:34:30.615Z,1003.13
2022-09-26T05:35:30.606Z,1003.15
2022-09-26T05:36:30.651Z,1003.12
2022-09-26T05:37:30.586Z,1003.09
2022-09-26T05:38:30.590Z,1003.12
2022-09-26T05:39:30.568Z,1003.16
2022-09-26T05:40:30.635Z,1003.12
2022-09-26T05:41:30.537Z,1003.09
2022-09-26T05:42:30.539Z,1003.07
2022-09-26T05:43:30.527Z,1003.11
2022-09-26T05:44:30.529Z,1003.09
2022-09-26T05:45:30.536Z,1003.14
2022-09-26T05:46:30.514Z,1003.13
2022-09-26T05:47:30.480Z,1003.11
2022-09-26T05:48:30.478Z,1003.11
2022-09-26T05:49:30.465Z,1003.07
2022-09-26T05:50:30.459Z,1003.06
2022-09-26T05:51:30.469Z,1003.06
2022-09-26T05:52:30.431Z,1003.01
2022-09-26T05:53:30.423Z,1003.01
2022-09-26T05:54:30.399Z,1003.01
2022-09-26T05:55:30.400Z,1003.08
2022-09-26T05:56:30.510Z,1003.13
2022-09-26T05:57:30.369Z,1003.03
2022-09-26T05:58:30.360Z,1003.08
2022-09-26T05:59:30.381Z,1003.06
2022-09-26T06:00:30.343Z,1003.08
2022-09-26T06:01:30.401Z,1003.10
2022-09-26T06:02:30.385Z,1003.12
2022-09-26T06:03:30.303Z,1003.11
2022-09-26T06:04:30.431Z,1003.05
2022-09-26T06:05:30.301Z,1003.10
2022-09-26T06:06:30.273Z,1003.10
2022-09-26T06:07:30.282Z,1003.09
2022-09-26T06:08:30.233Z,1003.06
2022-09-26T06:09:30.289Z,1003.09
2022-09-26T06:10:30.237Z,1003.02
2022-09-26T06:11:30.224Z,1003.00
2022-09-26T06:12:30.214Z,1002.96
2022-09-26T06:13:30.212Z,1003.00
2022-09-26T06:14:30.194Z,1003.07
2022-09-26T06:15:30.198Z,1003.00
2022-09-26T06:16:30.219Z,1003.01
2022-09-26T06:17:30.155Z,1003.03
2022-09-26T06:18:30.167Z,1003.00
2022-09-26T06:19:30.126Z,1002.89
2022-09-26T06:20:30.128Z,1002.88
2022-09-26T06:21:30.108Z,1002.86
2022-09-26T06:22:30.127Z,1002.88
2022-09-26T06:23:30.118Z,1002.88
2022-09-26T06:24:30.083Z,1002.92
2022-09-26T06:25:30.071Z,1002.89
2022-09-26T06:26:30.049Z,1002.84
2022-09-26T06:27:30.058Z,1002.85
2022-09-26T06:28:30.029Z,1002.88
2022-09-26T06:29:30.046Z,1002.84
2022-09-26T06:30:30.008Z,1002.78
2022-09-26T06:31:30.203Z,1002.78
2022-09-26T06:32:30.001Z,1002.74
2022-09-26T06:33:33.355Z,1002.78
2022-09-26T06:34:29.989Z,1002.75
2022-09-26T06:35:29.961Z,1002.74
2022-09-26T06:36:29.963Z,1002.75
2022-09-26T06:37:29.980Z,1002.74
2022-09-26T06:38:29.928Z,1002.74
2022-09-26T06:39:29.897Z,1002.71
2022-09-26T06:40:29.989Z,1002.75
2022-09-26T06:41:29.891Z,1002.74
2022-09-26T06:42:29.883Z,1002.72
2022-09-26T06:43:29.874Z,1002.74
2022-09-26T06:44:29.853Z,1002.74
2022-09-26T06:45:30.127Z,1002.68
2022-09-26T06:46:29.903Z,1002.68
2022-09-26T06:47:29.833Z,1002.68
2022-09-26T06:48:29.822Z,1002.68
2022-09-26T06:49:29.814Z,1002.62
2022-09-26T06:50:29.792Z,1002.63
2022-09-26T06:51:29.860Z,1002.62
2022-09-26T06:52:29.771Z,1002.60
2022-09-26T06:53:29.763Z,1002.65
2022-09-26T06:54:29.763Z,1002.56
2022-09-26T06:55:29.781Z,1002.60
2022-09-26T06:56:29.756Z,1002.61
2022-09-26T06:57:29.785Z,1002.59
2022-09-26T06:58:29.725Z,1002.57
2022-09-26T06:59:29.750Z,1002.56
2022-09-26T07:00:29.789Z,1002.55
2022-09-26T07:01:29.880Z,1002.57
2022-09-26T07:02:29.696Z,1002.50
2022-09-26T07:03:29.696Z,1002.59
2022-09-26T07:04:29.646Z,1002.51
2022-09-26T07:05:29.639Z,1002.58
2022-09-26T07:06:29.645Z,1002.58
2022-09-26T07:07:29.631Z,1002.52
2022-09-26T07:08:57.296Z,1002.58
2022-09-26T07:09:30.592Z,1002.53
2022-09-26T07:10:29.660Z,1002.52
2022-09-26T07:11:46.282Z,1002.54
2022-09-26T07:12:30.564Z,1002.53
2022-09-26T07:13:29.652Z,1002.59
2022-09-26T07:14:29.549Z,1002.57
2022-09-26T07:15:29.528Z,1002.51
2022-09-26T07:16:29.624Z,1002.49
2022-09-26T07:17:29.499Z,1002.56
2022-09-26T07:18:29.507Z,1002.57
2022-09-26T07:19:29.512Z,1002.46
2022-09-26T07:20:29.479Z,1002.50
2022-09-26T07:21:29.464Z,1002.50
2022-09-26T07:22:29.460Z,1002.49
2022-09-26T07:23:29.459Z,1002.57
2022-09-26T07:24:29.430Z,1002.50
2022-09-26T07:25:29.420Z,1002.43
2022-09-26T07:26:29.424Z,1002.47
2022-09-26T07:27:29.402Z,1002.40
2022-09-26T07:28:29.429Z,1002.45
2022-09-26T07:29:29.388Z,1002.37
2022-09-26T07:30:29.361Z,1002.41
2022-09-26T07:31:29.420Z,1002.32
2022-09-26T07:32:29.354Z,1002.39
2022-09-26T07:33:29.334Z,1002.30
2022-09-26T07:34:29.354Z,1002.37
2022-09-26T07:35:29.302Z,1002.32
2022-09-26T07:36:29.294Z,1002.31
2022-09-26T07:37:29.297Z,1002.33
2022-09-26T07:38:29.275Z,1002.28
2022-09-26T07:39:29.291Z,1002.25
2022-09-26T07:40:29.304Z,1002.29
2022-09-26T07:41:29.235Z,1002.22
2022-09-26T07:42:29.234Z,1002.24
2022-09-26T07:44:04.590Z,1002.26
2022-09-26T07:45:30.319Z,1002.15
2022-09-26T07:46:29.234Z,1002.14
2022-09-26T07:47:29.174Z,1002.22
2022-09-26T07:48:29.178Z,1002.15
2022-09-26T07:49:29.166Z,1002.17
2022-09-26T07:50:29.335Z,1002.12
2022-09-26T07:51:29.136Z,1002.12
2022-09-26T07:52:30.354Z,1002.18
2022-09-26T07:53:29.107Z,1002.18
2022-09-26T07:54:29.108Z,1002.14
2022-09-26T07:55:29.099Z,1002.16
2022-09-26T07:56:29.125Z,1002.21
2022-09-26T07:57:29.069Z,1002.18
2022-09-26T07:58:29.080Z,1002.13
2022-09-26T07:59:29.062Z,1002.14
2022-09-26T08:00:29.039Z,1002.25
2022-09-26T08:01:29.035Z,1002.13
2022-09-26T08:02:29.240Z,1002.12
2022-09-26T08:03:28.999Z,1002.16
2022-09-26T08:04:28.993Z,1002.25
2022-09-26T08:05:28.991Z,1002.16
2022-09-26T08:06:29.000Z,1002.20
2022-09-26T08:07:28.960Z,1002.16
2022-09-26T08:08:28.981Z,1002.23
2022-09-26T08:09:28.974Z,1002.17
2022-09-26T08:10:28.942Z,1002.22
2022-09-26T08:11:28.932Z,1002.24
2022-09-26T08:12:28.940Z,1002.19
2022-09-26T08:13:28.905Z,1002.15
2022-09-26T08:14:28.923Z,1002.22
2022-09-26T08:15:28.885Z,1002.17
2022-09-26T08:16:28.955Z,1002.15
2022-09-26T08:17:28.872Z,1002.15
2022-09-26T08:18:28.855Z,1002.18
2022-09-26T08:19:28.834Z,1002.16
2022-09-26T08:20:32.182Z,1002.23
2022-09-26T08:21:28.830Z,1002.26
2022-09-26T08:22:28.817Z,1002.23
2022-09-26T08:23:28.838Z,1002.23
2022-09-26T08:24:28.786Z,1002.26
2022-09-26T08:25:28.803Z,1002.26
2022-09-26T08:26:28.758Z,1002.16
2022-09-26T08:27:28.757Z,1002.27
2022-09-26T08:28:28.775Z,1002.24
2022-09-26T08:29:28.727Z,1002.20
2022-09-26T08:30:28.748Z,1002.17
2022-09-26T08:31:28.806Z,1002.15
2022-09-26T08:32:28.705Z,1002.16
2022-09-26T08:33:28.691Z,1002.13
2022-09-26T08:34:28.686Z,1002.16
2022-09-26T08:35:28.676Z,1002.26
2022-09-26T08:36:28.658Z,1002.15
2022-09-26T08:37:28.649Z,1002.17
2022-09-26T08:38:28.648Z,1002.18
2022-09-26T08:39:33.113Z,1002.14
2022-09-26T08:40:28.699Z,1002.17
2022-09-26T08:41:28.600Z,1002.14
2022-09-26T08:42:28.646Z,1002.13
2022-09-26T08:43:28.619Z,1002.16
2022-09-26T08:44:28.592Z,1002.11
2022-09-26T08:45:28.548Z,1002.06
2022-09-26T08:46:28.633Z,1002.06
2022-09-26T08:47:28.543Z,1002.08
2022-09-26T08:48:28.571Z,1002.13
2022-09-26T08:49:28.511Z,1002.09
2022-09-26T08:50:28.505Z,1001.98
2022-09-26T08:51:29.447Z,1002.13
2022-09-26T08:52:28.482Z,1002.11
2022-09-26T08:53:28.475Z,1001.96
2022-09-26T08:54:28.491Z,1001.86
2022-09-26T08:55:28.440Z,1001.89
2022-09-26T08:56:28.434Z,1001.93
2022-09-26T08:57:28.422Z,1001.84
2022-09-26T08:58:29.055Z,1001.86
2022-09-26T08:59:28.434Z,1001.99
2022-09-26T09:00:28.395Z,1001.95
2022-09-26T09:01:28.665Z,1001.91
2022-09-26T09:02:28.476Z,1001.94
2022-09-26T09:03:28.353Z,1001.91
2022-09-26T09:04:28.353Z,1001.87
2022-09-26T09:05:28.334Z,1001.90
2022-09-26T09:06:28.326Z,1001.97
2022-09-26T09:07:28.375Z,1001.86
2022-09-26T09:08:28.299Z,1001.95
2022-09-26T09:09:28.295Z,1001.91
2022-09-26T09:10:28.288Z,1001.87
2022-09-26T09:11:28.266Z,1001.92
2022-09-26T09:12:32.105Z,1001.87
2022-09-26T09:13:28.246Z,1001.88
2022-09-26T09:14:28.240Z,1001.79
2022-09-26T09:15:28.235Z,1001.87
2022-09-26T09:16:28.267Z,1001.77
2022-09-26T09:17:28.326Z,1001.92
2022-09-26T09:18:28.217Z,1001.91
2022-09-26T09:19:28.214Z,1001.81
2022-09-26T09:20:28.188Z,1001.72
2022-09-26T09:21:28.159Z,1001.70
2022-09-26T09:22:28.148Z,1001.77
2022-09-26T09:23:28.151Z,1001.73
2022-09-26T09:24:28.499Z,1001.73
2022-09-26T09:25:28.129Z,1001.73
2022-09-26T09:28:29.108Z,1001.65
2022-09-26T09:29:28.080Z,1001.71
2022-09-26T09:30:28.094Z,1001.65
2022-09-26T09:31:28.122Z,1001.62
2022-09-26T09:32:28.053Z,1001.61
2022-09-26T09:33:28.174Z,1001.62
2022-09-26T09:34:28.025Z,1001.63
2022-09-26T09:35:28.019Z,1001.65
2022-09-26T09:36:27.990Z,1001.65
2022-09-26T09:37:28.053Z,1001.64
2022-09-26T09:38:27.983Z,1001.70
2022-09-26T09:39:27.971Z,1001.55
2022-09-26T09:40:28.149Z,1001.54
2022-09-26T09:41:27.952Z,1001.65
2022-09-26T09:42:28.083Z,1001.55
2022-09-26T09:43:27.945Z,1001.54
2022-09-26T09:44:27.923Z,1001.51
2022-09-26T09:45:27.912Z,1001.55
2022-09-26T09:46:27.942Z,1001.67
2022-09-26T09:47:28.148Z,1001.49
2022-09-26T09:48:27.865Z,1001.55
2022-09-26T09:49:27.853Z,1001.52
2022-09-26T09:50:27.857Z,1001.52
2022-09-26T09:51:27.843Z,1001.56
2022-09-26T09:52:28.018Z,1001.53
2022-09-26T09:53:27.826Z,1001.45
2022-09-26T09:54:27.806Z,1001.48
2022-09-26T09:55:27.795Z,1001.49
2022-09-26T09:56:27.783Z,1001.47
2022-09-26T09:57:27.757Z,1001.44
2022-09-26T09:58:27.785Z,1001.54
2022-09-26T09:59:27.848Z,1001.42
2022-09-26T10:00:27.746Z,1001.48
2022-09-26T10:01:27.725Z,1001.57
2022-09-26T10:02:27.748Z,1001.43
2022-09-26T10:03:27.758Z,1001.47
2022-09-26T10:04:27.712Z,1001.50
2022-09-26T10:05:27.687Z,1001.43
2022-09-26T10:06:46.280Z,1001.53
2022-09-26T10:07:28.659Z,1001.46
2022-09-26T10:08:27.650Z,1001.48
2022-09-26T10:09:39.630Z,1001.48
2022-09-26T10:10:28.678Z,1001.52
2022-09-26T10:11:27.620Z,1001.45
2022-09-26T10:12:27.608Z,1001.54
2022-09-26T10:13:27.601Z,1001.56
2022-09-26T10:14:27.606Z,1001.47
2022-09-26T10:15:27.687Z,1001.50
2022-09-26T10:16:27.654Z,1001.52
2022-09-26T10:17:27.540Z,1001.49
2022-09-26T10:18:27.637Z,1001.43
2022-09-26T10:19:27.533Z,1001.50
2022-09-26T10:20:27.562Z,1001.46
2022-09-26T10:21:27.541Z,1001.48
2022-09-26T10:22:27.500Z,1001.41
2022-09-26T10:23:27.491Z,1001.49
2022-09-26T10:24:27.496Z,1001.56
2022-09-26T10:25:27.475Z,1001.48
2022-09-26T10:26:31.337Z,1001.46
2022-09-26T10:27:27.449Z,1001.35
2022-09-26T10:28:27.444Z,1001.34
2022-09-26T10:29:27.429Z,1001.27
2022-09-26T10:30:27.433Z,1001.32
2022-09-26T10:31:27.460Z,1001.31
2022-09-26T10:32:27.402Z,1001.25
2022-09-26T10:33:27.424Z,1001.32
2022-09-26T10:34:27.395Z,1001.29
2022-09-26T10:35:27.376Z,1001.27
2022-09-26T10:36:27.490Z,1001.24
2022-09-26T10:37:27.341Z,1001.27
2022-09-26T10:38:27.370Z,1001.25
2022-09-26T10:39:27.317Z,1001.28
2022-09-26T10:40:27.370Z,1001.30
2022-09-26T10:41:27.297Z,1001.26
2022-09-26T10:42:32.011Z,1001.28
2022-09-26T10:43:28.267Z,1001.20
2022-09-26T10:44:27.266Z,1001.28
2022-09-26T10:45:27.289Z,1001.30
2022-09-26T10:46:27.293Z,1001.27
2022-09-26T10:47:27.230Z,1001.33
2022-09-26T10:48:27.258Z,1001.41
2022-09-26T10:49:27.198Z,1001.38
2022-09-26T10:50:27.197Z,1001.36
2022-09-26T10:51:27.222Z,1001.38
2022-09-26T10:52:27.188Z,1001.40
2022-09-26T10:53:27.167Z,1001.24
2022-09-26T10:54:27.179Z,1001.30
2022-09-26T10:55:27.217Z,1001.28
2022-09-26T10:56:27.140Z,1001.31
2022-09-26T10:57:27.908Z,1001.25
2022-09-26T10:58:27.121Z,1001.25
2022-09-26T10:59:27.088Z,1001.28
2022-09-26T11:00:27.132Z,1001.27
2022-09-26T11:01:27.127Z,1001.26
2022-09-26T11:02:27.082Z,1001.23
2022-09-26T11:03:27.087Z,1001.23
2022-09-26T11:04:27.058Z,1001.18
2022-09-26T11:05:27.041Z,1001.21
2022-09-26T11:06:27.061Z,1001.19
2022-09-26T11:07:27.023Z,1001.19
2022-09-26T11:08:27.165Z,1001.13
2022-09-26T11:09:27.004Z,1001.22
2022-09-26T11:10:27.003Z,1001.07
2022-09-26T11:11:27.024Z,1001.15
2022-09-26T11:12:26.975Z,1001.14
2022-09-26T11:13:26.954Z,1001.07
2022-09-26T11:14:28.379Z,1001.08
2022-09-26T11:15:26.983Z,1001.04
2022-09-26T11:16:26.995Z,1001.07
2022-09-26T11:17:26.905Z,1001.03
2022-09-26T11:18:26.905Z,1000.89
2022-09-26T11:19:26.896Z,1000.99
2022-09-26T11:20:27.035Z,1000.89
2022-09-26T11:21:29.244Z,1001.00
2022-09-26T11:22:26.866Z,1001.02
2022-09-26T11:23:26.837Z,1000.90
2022-09-26T11:24:26.850Z,1000.86
2022-09-26T11:25:26.827Z,1000.91
2022-09-26T11:26:26.859Z,1000.79
2022-09-26T11:27:26.808Z,1000.93
2022-09-26T11:28:26.811Z,1000.90
2022-09-26T11:29:26.778Z,1000.88
2022-09-26T11:30:26.787Z,1001.03
2022-09-26T11:31:26.856Z,1000.96
2022-09-26T11:32:26.790Z,1000.94
2022-09-26T11:33:26.749Z,1000.98
2022-09-26T11:34:26.743Z,1000.78
2022-09-26T11:35:26.720Z,1000.91
2022-09-26T11:36:26.710Z,1000.86
2022-09-26T11:37:26.762Z,1000.77
2022-09-26T11:38:26.691Z,1000.87
2022-09-26T11:39:26.670Z,1000.79
2022-09-26T11:40:26.724Z,1000.84
2022-09-26T11:41:26.732Z,1000.73
2022-09-26T11:42:26.680Z,1000.80
2022-09-26T11:43:26.682Z,1000.73
2022-09-26T11:44:26.632Z,1000.81
2022-09-26T11:45:26.611Z,1000.75
2022-09-26T11:46:26.660Z,1000.69
2022-09-26T11:47:26.592Z,1000.80
2022-09-26T11:48:26.615Z,1000.70
2022-09-26T11:49:26.565Z,1000.71
2022-09-26T11:50:26.562Z,1000.66
2022-09-26T11:51:26.541Z,1000.72
2022-09-26T11:52:26.572Z,1000.66
2022-09-26T11:53:26.535Z,1000.66
2022-09-26T11:54:26.515Z,1000.52
2022-09-26T11:55:26.503Z,1000.54
2022-09-26T11:56:26.495Z,1000.46
2022-09-26T11:57:26.546Z,1000.47
2022-09-26T11:58:26.476Z,1000.41
2022-09-26T11:59:26.469Z,1000.48
2022-09-26T12:00:26.471Z,1000.48
2022-09-26T12:01:26.437Z,1000.41
2022-09-26T12:02:26.505Z,1000.42
2022-09-26T12:03:26.590Z,1000.46
2022-09-26T12:04:26.415Z,1000.31
2022-09-26T12:05:27.601Z,1000.34
2022-09-26T12:06:26.396Z,1000.33
2022-09-26T12:07:26.376Z,1000.27
2022-09-26T12:08:26.400Z,1000.30